createdAt,value
2024-01-11T00:00:36.958Z,27.33
2024-01-11T00:11:17.531Z,24.67
2024-01-11T00:21:41.700Z,19.52
2024-01-11T00:32:03.084Z,18.77
2024-01-11T00:42:24.497Z,17.88
2024-01-11T00:52:45.404Z,20.92
2024-01-11T01:03:06.345Z,19.38
2024-01-11T01:13:27.448Z,21.58
2024-01-11T01:23:48.562Z,21.08
2024-01-11T01:34:09.931Z,24.38
2024-01-11T01:44:30.809Z,29.50
2024-01-11T01:54:52.054Z,33.33
2024-01-11T02:05:15.405Z,27.35
2024-01-11T02:15:36.819Z,26.90
2024-01-11T02:25:59.007Z,21.42
2024-01-11T02:36:24.224Z,26.30
2024-01-11T02:46:45.291Z,27.23
2024-01-11T02:57:06.042Z,30.10
2024-01-11T03:07:27.278Z,46.08
2024-01-11T03:17:48.823Z,52.13
2024-01-11T03:28:10.437Z,32.90
2024-01-11T03:38:31.563Z,32.63
2024-01-11T03:48:52.832Z,27.52
2024-01-11T03:59:13.639Z,30.50
2024-01-11T04:09:34.471Z,39.45
2024-01-11T04:19:55.294Z,21.52
2024-01-11T04:30:16.503Z,42.97
2024-01-11T04:40:37.653Z,27.55
2024-01-11T04:50:58.495Z,31.67
2024-01-11T05:01:19.948Z,37.95
2024-01-11T05:11:41.261Z,29.27
2024-01-11T05:22:02.837Z,31.85
2024-01-11T05:32:23.694Z,42.65
2024-01-11T05:42:44.609Z,38.08
2024-01-11T05:53:06.558Z,38.30
2024-01-11T06:03:28.126Z,26.42
2024-01-11T06:13:49.084Z,42.10
2024-01-11T06:24:09.986Z,37.92
2024-01-11T06:34:31.189Z,41.42
2024-01-11T06:44:52.313Z,43.50
2024-01-11T06:55:13.138Z,46.85
2024-01-11T07:05:34.083Z,42.10
2024-01-11T07:15:56.697Z,51.13
2024-01-11T07:26:17.345Z,51.45
2024-01-11T07:36:38.142Z,67.07
2024-01-11T07:47:02.065Z,78.28
2024-01-11T07:57:24.333Z,84.20
2024-01-11T08:07:45.296Z,58.22
2024-01-11T08:18:06.407Z,52.50
2024-01-11T08:28:27.320Z,79.18
2024-01-11T08:38:48.424Z,48.20
2024-01-11T08:49:09.764Z,47.50
2024-01-11T08:59:30.898Z,36.05
2024-01-11T09:09:56.727Z,53.28
2024-01-11T09:20:19.998Z,67.28
2024-01-11T09:30:41.014Z,54.10
2024-01-11T09:41:11.667Z,52.05
2024-01-11T09:51:35.791Z,56.17
2024-01-11T10:01:56.624Z,44.33
2024-01-11T10:12:24.383Z,48.80
2024-01-11T10:22:47.643Z,41.63
2024-01-11T10:33:09.070Z,43.85
2024-01-11T10:43:32.200Z,42.45
2024-01-11T10:53:54.796Z,55.35
2024-01-11T11:04:17.605Z,44.38
2024-01-11T11:14:39.667Z,55.65
2024-01-11T11:25:07.048Z,47.80
2024-01-11T11:35:28.324Z,33.83
2024-01-11T11:45:51.190Z,35.75
2024-01-11T11:56:13.494Z,20.33
2024-01-11T12:06:34.978Z,26.98
2024-01-11T12:16:59.608Z,30.13
2024-01-11T12:27:21.782Z,29.95
2024-01-11T12:37:42.645Z,32.38
2024-01-11T12:48:07.491Z,31.17
2024-01-11T12:58:28.499Z,35.42
2024-01-11T13:08:50.039Z,31.45
2024-01-11T13:19:19.935Z,36.10
2024-01-11T13:29:47.621Z,33.13
2024-01-11T13:40:10.871Z,24.02
2024-01-11T13:50:32.281Z,33.45
2024-01-11T14:00:54.582Z,35.22
2024-01-11T14:11:16.700Z,30.50
2024-01-11T14:21:37.986Z,44.58
2024-01-11T14:31:58.878Z,47.20
2024-01-11T14:42:19.761Z,41.75
2024-01-11T14:52:40.571Z,36.97
2024-01-11T15:03:02.102Z,56.63
2024-01-11T15:13:23.654Z,64.38
2024-01-11T15:23:44.631Z,63.58
2024-01-11T15:34:05.739Z,67.85
2024-01-11T15:44:28.754Z,63.90
2024-01-11T15:54:50.796Z,64.90
2024-01-11T16:05:12.231Z,50.67
2024-01-11T16:15:33.171Z,58.50
2024-01-11T16:25:54.902Z,53.90
2024-01-11T16:36:18.602Z,48.30
2024-01-11T16:46:39.985Z,44.00
2024-01-11T16:57:01.516Z,42.70
2024-01-11T17:07:22.352Z,46.92
2024-01-11T17:17:43.818Z,38.95
2024-01-11T17:28:06.354Z,41.65
2024-01-11T17:38:28.149Z,39.72
2024-01-11T17:48:50.174Z,43.50
2024-01-11T17:59:11.273Z,40.40
2024-01-11T18:09:35.517Z,43.95
2024-01-11T18:19:56.903Z,49.40
2024-01-11T18:30:18.314Z,49.60
2024-01-11T18:40:39.605Z,45.20
2024-01-11T18:51:02.070Z,46.28
2024-01-11T19:01:26.721Z,47.83
2024-01-11T19:11:51.470Z,40.35
2024-01-11T19:22:12.527Z,43.15
2024-01-11T19:32:33.751Z,28.63
2024-01-11T19:42:55.104Z,42.58
2024-01-11T19:53:17.240Z,29.70
2024-01-11T20:03:40.402Z,37.15
2024-01-11T20:14:01.129Z,34.10
2024-01-11T20:24:22.260Z,33.60
2024-01-11T20:34:43.243Z,38.78
2024-01-11T20:45:05.176Z,36.72
2024-01-11T20:55:26.237Z,34.03
2024-01-11T21:05:50.161Z,45.13
2024-01-11T21:16:12.332Z,36.05
2024-01-11T21:26:33.804Z,34.88
2024-01-11T21:36:55.434Z,37.72
2024-01-11T21:47:16.997Z,36.42
2024-01-11T21:57:38.446Z,29.23
2024-01-11T22:07:59.653Z,37.47
2024-01-11T22:18:20.647Z,29.58
2024-01-11T22:28:41.918Z,40.40
2024-01-11T22:39:03.925Z,37.30
2024-01-11T22:49:25.385Z,48.00
2024-01-11T22:59:46.478Z,47.65
2024-01-11T23:10:07.770Z,41.00
2024-01-11T23:20:28.830Z,32.92
2024-01-11T23:30:50.253Z,41.75
2024-01-11T23:41:11.398Z,36.30
2024-01-11T23:51:33.554Z,36.50
